Airfield :
LOGIN :

Register | Disclaimer

   EN    FR    IT 

 










Legend :    VFR   Marginal VFR   IFR   Intensive IFR   Very Intensive IFR
Visi :
Ceiling :
>= 8 km
>= 3000ft
5 to 8 km
1000 to 3000 ft
1500m to 5 km
500 to 1000 ft
800 to 1500m
200 to 500 ft
< 800m
< 200 ft
Symbols :   Thunderstorms  Fog  Heavy snow  Heavy precipitations  Wind > 20 kt
SIGMETs :     Misc.  Thunderstorms  Icing  Turbulence  Mountain Waves  Volcanic Ashes






- Airport Elevation : 112 ft
- IATA code : SVQ


LEZL - Sevilla San Pablo

CURRENT METAR :
  • 282300Z 17005KT 150V220 CAVOK 09/05 Q1023 NOSIG

EXPIRED METARs :
  • 282230Z 17003KT CAVOK 08/05 Q1023 NOSIG
  • 282200Z 14003KT CAVOK 08/05 Q1023 NOSIG
  • 282130Z 16005KT 140V200 CAVOK 10/06 Q1023 NOSIG
  • 282100Z 18003KT CAVOK 09/06 Q1022 NOSIG
  • 282030Z 25004KT CAVOK 12/05 Q1022 NOSIG
  • 282000Z 24004KT CAVOK 12/05 Q1022 NOSIG
  • 281930Z 20003KT 160V250 CAVOK 11/06 Q1022 NOSIG
  • 281900Z 21005KT CAVOK 14/05 Q1022 NOSIG
  • 281830Z 22007KT CAVOK 15/06 Q1021 NOSIG

TAF TAF LEZL
Valid from the 28 at 21:00 until the 29 at 21:00 UTC


282000Z 2821/2921 29005KT CAVOK TX21/2915Z TN03/2907Z



MET'MAP, your aeronautical weather chart ! - Copyright ORBIFLY December 2007 - Disclaimer

ORBIFLY MET'MAP TEAM :

Programming & Development : Alexandra Zaïnal
Original concept : Baudouin d'Aumeries
Technical & hardware support : Manuel Goepfert
Assistance : Marc-Olivier Méhu




SOURCES & CREDITS :

   NOAA